sensor_id;sensor_type;location;lat;lon;timestamp;temperature;humidity
2825;DHT22;1420;51.324;12.344;2022-08-03T00:02:13;18.20;99.90
2825;DHT22;1420;51.324;12.344;2022-08-03T00:04:41;18.20;99.90
2825;DHT22;1420;51.324;12.344;2022-08-03T00:07:09;18.20;99.90
2825;DHT22;1420;51.324;12.344;2022-08-03T00:09:37;18.10;99.90
2825;DHT22;1420;51.324;12.344;2022-08-03T00:12:05;17.80;99.90
2825;DHT22;1420;51.324;12.344;2022-08-03T00:14:32;17.80;99.90
2825;DHT22;1420;51.324;12.344;2022-08-03T00:17:00;17.70;99.90
2825;DHT22;1420;51.324;12.344;2022-08-03T00:19:28;17.70;99.90
2825;DHT22;1420;51.324;12.344;2022-08-03T00:21:56;17.70;99.90
2825;DHT22;1420;51.324;12.344;2022-08-03T00:24:24;17.80;99.90
2825;DHT22;1420;51.324;12.344;2022-08-03T00:26:52;17.70;99.90
2825;DHT22;1420;51.324;12.344;2022-08-03T00:29:20;17.80;99.90
2825;DHT22;1420;51.324;12.344;2022-08-03T00:31:48;17.80;99.90
2825;DHT22;1420;51.324;12.344;2022-08-03T00:34:15;17.80;99.90
2825;DHT22;1420;51.324;12.344;2022-08-03T00:36:42;17.90;99.90
2825;DHT22;1420;51.324;12.344;2022-08-03T00:39:09;17.90;99.90
2825;DHT22;1420;51.324;12.344;2022-08-03T00:41:37;17.80;99.90
2825;DHT22;1420;51.324;12.344;2022-08-03T00:44:05;17.80;99.90
2825;DHT22;1420;51.324;12.344;2022-08-03T00:46:33;17.90;99.90
2825;DHT22;1420;51.324;12.344;2022-08-03T00:49:01;17.90;99.90
2825;DHT22;1420;51.324;12.344;2022-08-03T00:51:29;17.80;99.90
2825;DHT22;1420;51.324;12.344;2022-08-03T00:53:57;17.80;99.90
2825;DHT22;1420;51.324;12.344;2022-08-03T00:56:24;17.80;99.90
2825;DHT22;1420;51.324;12.344;2022-08-03T00:58:51;17.70;99.90
2825;DHT22;1420;51.324;12.344;2022-08-03T01:01:19;17.70;99.90
2825;DHT22;1420;51.324;12.344;2022-08-03T01:03:46;17.70;99.90
2825;DHT22;1420;51.324;12.344;2022-08-03T01:06:18;17.70;99.90
2825;DHT22;1420;51.324;12.344;2022-08-03T01:08:47;17.70;99.90
2825;DHT22;1420;51.324;12.344;2022-08-03T01:11:31;17.70;99.90
2825;DHT22;1420;51.324;12.344;2022-08-03T01:14:08;17.70;99.90
2825;DHT22;1420;51.324;12.344;2022-08-03T01:16:36;17.70;99.90
2825;DHT22;1420;51.324;12.344;2022-08-03T01:22:04;17.60;99.90
2825;DHT22;1420;51.324;12.344;2022-08-03T01:27:18;17.50;99.90
2825;DHT22;1420;51.324;12.344;2022-08-03T01:29:49;17.50;99.90
2825;DHT22;1420;51.324;12.344;2022-08-03T01:32:14;17.40;99.90
2825;DHT22;1420;51.324;12.344;2022-08-03T01:34:43;17.50;99.90
2825;DHT22;1420;51.324;12.344;2022-08-03T01:37:08;17.40;99.90
2825;DHT22;1420;51.324;12.344;2022-08-03T01:39:35;17.40;99.90
2825;DHT22;1420;51.324;12.344;2022-08-03T01:42:03;17.50;99.90
2825;DHT22;1420;51.324;12.344;2022-08-03T01:44:37;17.40;99.90
2825;DHT22;1420;51.324;12.344;2022-08-03T01:47:03;17.40;99.90
2825;DHT22;1420;51.324;12.344;2022-08-03T01:49:31;17.40;99.90
2825;DHT22;1420;51.324;12.344;2022-08-03T01:51:58;17.50;99.90
2825;DHT22;1420;51.324;12.344;2022-08-03T01:54:25;17.50;99.90
2825;DHT22;1420;51.324;12.344;2022-08-03T01:56:53;17.70;99.90
2825;DHT22;1420;51.324;12.344;2022-08-03T01:59:21;17.70;99.90
2825;DHT22;1420;51.324;12.344;2022-08-03T02:01:49;17.70;1.00
2825;DHT22;1420;51.324;12.344;2022-08-03T02:04:17;17.60;1.00
2825;DHT22;1420;51.324;12.344;2022-08-03T02:06:45;17.50;1.00
2825;DHT22;1420;51.324;12.344;2022-08-03T02:09:13;17.50;1.00
2825;DHT22;1420;51.324;12.344;2022-08-03T02:11:41;17.30;1.00
2825;DHT22;1420;51.324;12.344;2022-08-03T02:14:08;17.20;1.00
2825;DHT22;1420;51.324;12.344;2022-08-03T02:16:36;17.20;1.00
2825;DHT22;1420;51.324;12.344;2022-08-03T02:19:05;17.10;1.00
2825;DHT22;1420;51.324;12.344;2022-08-03T02:21:34;17.10;1.00
2825;DHT22;1420;51.324;12.344;2022-08-03T02:24:01;17.10;1.00
2825;DHT22;1420;51.324;12.344;2022-08-03T02:26:29;17.10;1.00
2825;DHT22;1420;51.324;12.344;2022-08-03T02:28:58;17.10;1.00
2825;DHT22;1420;51.324;12.344;2022-08-03T02:31:26;17.00;1.00
2825;DHT22;1420;51.324;12.344;2022-08-03T02:33:52;17.10;1.00
2825;DHT22;1420;51.324;12.344;2022-08-03T02:36:21;17.00;1.00
2825;DHT22;1420;51.324;12.344;2022-08-03T02:38:48;17.00;99.90
2825;DHT22;1420;51.324;12.344;2022-08-03T02:41:15;17.00;99.90
2825;DHT22;1420;51.324;12.344;2022-08-03T02:43:44;17.10;99.90
2825;DHT22;1420;51.324;12.344;2022-08-03T02:46:10;17.10;99.90
2825;DHT22;1420;51.324;12.344;2022-08-03T02:48:38;17.10;99.90
2825;DHT22;1420;51.324;12.344;2022-08-03T02:51:06;17.10;55.80
2825;DHT22;1420;51.324;12.344;2022-08-03T02:53:33;17.10;47.80
2825;DHT22;1420;51.324;12.344;2022-08-03T02:56:00;17.10;1.00
2825;DHT22;1420;51.324;12.344;2022-08-03T02:58:28;17.00;1.00
2825;DHT22;1420;51.324;12.344;2022-08-03T03:00:55;17.00;1.00
2825;DHT22;1420;51.324;12.344;2022-08-03T03:03:22;16.90;1.00
2825;DHT22;1420;51.324;12.344;2022-08-03T03:05:49;16.80;16.70
2825;DHT22;1420;51.324;12.344;2022-08-03T03:08:17;16.80;99.90
2825;DHT22;1420;51.324;12.344;2022-08-03T03:10:44;16.90;97.30
2825;DHT22;1420;51.324;12.344;2022-08-03T03:13:11;16.80;1.20
2825;DHT22;1420;51.324;12.344;2022-08-03T03:15:38;16.80;1.00
2825;DHT22;1420;51.324;12.344;2022-08-03T03:18:05;16.80;1.00
2825;DHT22;1420;51.324;12.344;2022-08-03T03:20:32;16.70;1.00
2825;DHT22;1420;51.324;12.344;2022-08-03T03:23:00;16.80;1.00
2825;DHT22;1420;51.324;12.344;2022-08-03T03:25:29;16.90;1.00
2825;DHT22;1420;51.324;12.344;2022-08-03T03:27:57;16.90;1.00
2825;DHT22;1420;51.324;12.344;2022-08-03T03:30:24;16.80;1.00
2825;DHT22;1420;51.324;12.344;2022-08-03T03:32:52;16.70;1.00
2825;DHT22;1420;51.324;12.344;2022-08-03T03:35:20;16.70;1.00
2825;DHT22;1420;51.324;12.344;2022-08-03T03:37:47;16.70;1.00
2825;DHT22;1420;51.324;12.344;2022-08-03T03:40:15;16.70;1.00
2825;DHT22;1420;51.324;12.344;2022-08-03T03:42:43;16.70;1.00
2825;DHT22;1420;51.324;12.344;2022-08-03T03:45:11;16.70;1.00
2825;DHT22;1420;51.324;12.344;2022-08-03T03:47:39;16.70;1.00
2825;DHT22;1420;51.324;12.344;2022-08-03T03:50:08;16.80;1.00
2825;DHT22;1420;51.324;12.344;2022-08-03T03:52:35;16.70;1.00
2825;DHT22;1420;51.324;12.344;2022-08-03T03:55:02;16.80;1.00
2825;DHT22;1420;51.324;12.344;2022-08-03T03:57:29;16.80;1.00
2825;DHT22;1420;51.324;12.344;2022-08-03T03:59:57;16.80;1.00
2825;DHT22;1420;51.324;12.344;2022-08-03T04:02:24;16.70;1.00
2825;DHT22;1420;51.324;12.344;2022-08-03T04:04:51;16.80;1.00
2825;DHT22;1420;51.324;12.344;2022-08-03T04:07:25;16.80;1.00
2825;DHT22;1420;51.324;12.344;2022-08-03T04:09:57;16.80;1.00
2825;DHT22;1420;51.324;12.344;2022-08-03T04:12:30;16.80;1.00
2825;DHT22;1420;51.324;12.344;2022-08-03T04:14:58;17.00;99.90
2825;DHT22;1420;51.324;12.344;2022-08-03T04:17:26;17.00;99.90
2825;DHT22;1420;51.324;12.344;2022-08-03T04:19:53;17.00;99.90
2825;DHT22;1420;51.324;12.344;2022-08-03T04:22:22;17.00;99.90
2825;DHT22;1420;51.324;12.344;2022-08-03T04:24:51;17.00;99.90
2825;DHT22;1420;51.324;12.344;2022-08-03T04:27:19;17.20;99.90
2825;DHT22;1420;51.324;12.344;2022-08-03T04:29:45;17.20;99.90
2825;DHT22;1420;51.324;12.344;2022-08-03T04:32:11;17.10;99.90
2825;DHT22;1420;51.324;12.344;2022-08-03T04:34:38;17.20;99.90
2825;DHT22;1420;51.324;12.344;2022-08-03T04:37:09;17.20;99.90
2825;DHT22;1420;51.324;12.344;2022-08-03T04:39:34;17.30;99.90
2825;DHT22;1420;51.324;12.344;2022-08-03T04:42:01;17.50;99.90
2825;DHT22;1420;51.324;12.344;2022-08-03T04:44:29;17.50;99.90
2825;DHT22;1420;51.324;12.344;2022-08-03T04:46:57;17.50;99.90
2825;DHT22;1420;51.324;12.344;2022-08-03T04:49:25;17.60;99.90
2825;DHT22;1420;51.324;12.344;2022-08-03T04:51:53;17.70;99.90
2825;DHT22;1420;51.324;12.344;2022-08-03T04:54:20;17.70;99.90
2825;DHT22;1420;51.324;12.344;2022-08-03T04:56:47;17.80;99.90
2825;DHT22;1420;51.324;12.344;2022-08-03T04:59:14;17.80;99.90
2825;DHT22;1420;51.324;12.344;2022-08-03T05:01:42;17.70;99.90
2825;DHT22;1420;51.324;12.344;2022-08-03T05:04:09;17.70;99.90
2825;DHT22;1420;51.324;12.344;2022-08-03T05:06:36;17.80;99.90
2825;DHT22;1420;51.324;12.344;2022-08-03T05:09:03;17.80;99.90
2825;DHT22;1420;51.324;12.344;2022-08-03T05:11:30;17.90;99.90
2825;DHT22;1420;51.324;12.344;2022-08-03T05:13:58;17.90;99.90
2825;DHT22;1420;51.324;12.344;2022-08-03T05:16:26;18.30;99.90
2825;DHT22;1420;51.324;12.344;2022-08-03T05:18:54;18.40;99.90
2825;DHT22;1420;51.324;12.344;2022-08-03T05:21:21;18.60;99.90
2825;DHT22;1420;51.324;12.344;2022-08-03T05:23:49;18.90;99.90
2825;DHT22;1420;51.324;12.344;2022-08-03T05:26:17;19.20;99.90
2825;DHT22;1420;51.324;12.344;2022-08-03T05:28:45;19.30;99.90
2825;DHT22;1420;51.324;12.344;2022-08-03T05:31:13;19.40;99.90
2825;DHT22;1420;51.324;12.344;2022-08-03T05:33:41;19.40;99.90
2825;DHT22;1420;51.324;12.344;2022-08-03T05:36:09;19.50;99.90
2825;DHT22;1420;51.324;12.344;2022-08-03T05:38:37;19.50;99.90
2825;DHT22;1420;51.324;12.344;2022-08-03T05:41:05;19.40;99.90
2825;DHT22;1420;51.324;12.344;2022-08-03T05:43:32;19.40;99.90
2825;DHT22;1420;51.324;12.344;2022-08-03T05:46:00;19.60;99.90
2825;DHT22;1420;51.324;12.344;2022-08-03T05:48:28;20.80;99.90
2825;DHT22;1420;51.324;12.344;2022-08-03T05:50:56;21.30;99.90
2825;DHT22;1420;51.324;12.344;2022-08-03T05:53:24;21.80;99.90
2825;DHT22;1420;51.324;12.344;2022-08-03T05:55:53;22.80;99.90
2825;DHT22;1420;51.324;12.344;2022-08-03T05:58:20;23.50;99.90
2825;DHT22;1420;51.324;12.344;2022-08-03T06:00:47;23.50;99.90
2825;DHT22;1420;51.324;12.344;2022-08-03T06:03:14;24.10;99.90
2825;DHT22;1420;51.324;12.344;2022-08-03T06:05:42;24.40;99.90
2825;DHT22;1420;51.324;12.344;2022-08-03T06:08:10;24.40;99.90
2825;DHT22;1420;51.324;12.344;2022-08-03T06:10:38;24.90;99.90
2825;DHT22;1420;51.324;12.344;2022-08-03T06:13:06;25.30;99.90
2825;DHT22;1420;51.324;12.344;2022-08-03T06:15:34;25.50;99.90
2825;DHT22;1420;51.324;12.344;2022-08-03T06:18:02;25.50;99.90
2825;DHT22;1420;51.324;12.344;2022-08-03T06:20:29;25.50;99.90
2825;DHT22;1420;51.324;12.344;2022-08-03T06:22:56;26.20;99.90
2825;DHT22;1420;51.324;12.344;2022-08-03T06:25:23;26.40;99.90
2825;DHT22;1420;51.324;12.344;2022-08-03T06:27:51;26.20;99.90
2825;DHT22;1420;51.324;12.344;2022-08-03T06:30:18;26.70;99.90
2825;DHT22;1420;51.324;12.344;2022-08-03T06:32:45;26.80;99.90
2825;DHT22;1420;51.324;12.344;2022-08-03T06:35:12;26.90;99.90
2825;DHT22;1420;51.324;12.344;2022-08-03T06:37:42;27.10;99.90
2825;DHT22;1420;51.324;12.344;2022-08-03T06:40:09;27.40;99.90
2825;DHT22;1420;51.324;12.344;2022-08-03T06:42:36;27.40;99.90
2825;DHT22;1420;51.324;12.344;2022-08-03T06:45:04;28.00;99.90
2825;DHT22;1420;51.324;12.344;2022-08-03T06:47:31;28.10;99.90
2825;DHT22;1420;51.324;12.344;2022-08-03T06:49:59;28.70;99.90
2825;DHT22;1420;51.324;12.344;2022-08-03T06:52:26;28.80;99.90
2825;DHT22;1420;51.324;12.344;2022-08-03T06:54:54;28.40;99.90
2825;DHT22;1420;51.324;12.344;2022-08-03T06:57:22;28.80;99.90
2825;DHT22;1420;51.324;12.344;2022-08-03T06:59:50;28.80;99.90
2825;DHT22;1420;51.324;12.344;2022-08-03T07:02:18;28.90;99.90
2825;DHT22;1420;51.324;12.344;2022-08-03T07:04:46;29.30;99.90
2825;DHT22;1420;51.324;12.344;2022-08-03T07:07:14;29.60;99.90
2825;DHT22;1420;51.324;12.344;2022-08-03T07:09:42;30.10;99.90
2825;DHT22;1420;51.324;12.344;2022-08-03T07:12:10;30.40;99.90
2825;DHT22;1420;51.324;12.344;2022-08-03T07:14:38;30.50;99.90
2825;DHT22;1420;51.324;12.344;2022-08-03T07:17:06;30.20;99.90
2825;DHT22;1420;51.324;12.344;2022-08-03T07:19:33;30.50;99.90
2825;DHT22;1420;51.324;12.344;2022-08-03T07:22:01;30.50;99.90
2825;DHT22;1420;51.324;12.344;2022-08-03T07:24:28;30.90;99.90
2825;DHT22;1420;51.324;12.344;2022-08-03T07:26:56;30.70;99.90
2825;DHT22;1420;51.324;12.344;2022-08-03T07:29:24;31.20;99.90
2825;DHT22;1420;51.324;12.344;2022-08-03T07:31:52;31.40;99.90
2825;DHT22;1420;51.324;12.344;2022-08-03T07:34:20;31.30;99.90
2825;DHT22;1420;51.324;12.344;2022-08-03T07:36:48;31.50;99.90
2825;DHT22;1420;51.324;12.344;2022-08-03T07:39:16;31.60;99.90
2825;DHT22;1420;51.324;12.344;2022-08-03T07:41:44;31.70;99.90
2825;DHT22;1420;51.324;12.344;2022-08-03T07:44:12;31.80;99.90
2825;DHT22;1420;51.324;12.344;2022-08-03T07:46:40;31.90;99.90
2825;DHT22;1420;51.324;12.344;2022-08-03T07:49:08;32.30;99.90
2825;DHT22;1420;51.324;12.344;2022-08-03T07:51:36;31.90;99.90
2825;DHT22;1420;51.324;12.344;2022-08-03T07:54:04;32.30;99.90
2825;DHT22;1420;51.324;12.344;2022-08-03T07:56:31;32.20;99.90
2825;DHT22;1420;51.324;12.344;2022-08-03T07:58:58;31.90;99.90
2825;DHT22;1420;51.324;12.344;2022-08-03T08:01:25;32.20;99.90
2825;DHT22;1420;51.324;12.344;2022-08-03T08:03:53;33.40;99.90
2825;DHT22;1420;51.324;12.344;2022-08-03T08:06:20;33.10;99.90
2825;DHT22;1420;51.324;12.344;2022-08-03T08:08:47;32.60;99.90
2825;DHT22;1420;51.324;12.344;2022-08-03T08:11:14;32.80;99.90
2825;DHT22;1420;51.324;12.344;2022-08-03T08:13:41;34.40;99.90
2825;DHT22;1420;51.324;12.344;2022-08-03T08:16:09;33.70;99.90
2825;DHT22;1420;51.324;12.344;2022-08-03T08:18:36;32.90;99.90
2825;DHT22;1420;51.324;12.344;2022-08-03T08:21:03;32.60;99.90
2825;DHT22;1420;51.324;12.344;2022-08-03T08:23:30;33.50;99.90
2825;DHT22;1420;51.324;12.344;2022-08-03T08:25:57;33.00;99.90
2825;DHT22;1420;51.324;12.344;2022-08-03T08:28:25;33.30;99.90
2825;DHT22;1420;51.324;12.344;2022-08-03T08:30:52;33.40;99.90
2825;DHT22;1420;51.324;12.344;2022-08-03T08:33:19;33.30;99.90
2825;DHT22;1420;51.324;12.344;2022-08-03T08:35:46;33.50;99.90
2825;DHT22;1420;51.324;12.344;2022-08-03T08:38:13;34.10;99.90
2825;DHT22;1420;51.324;12.344;2022-08-03T08:40:41;33.90;99.90
2825;DHT22;1420;51.324;12.344;2022-08-03T08:43:09;34.40;99.90
2825;DHT22;1420;51.324;12.344;2022-08-03T08:45:37;34.10;99.90
2825;DHT22;1420;51.324;12.344;2022-08-03T08:48:05;34.10;99.90
2825;DHT22;1420;51.324;12.344;2022-08-03T08:50:32;34.00;99.90
2825;DHT22;1420;51.324;12.344;2022-08-03T08:53:01;34.60;99.90
2825;DHT22;1420;51.324;12.344;2022-08-03T08:55:27;35.00;99.90
2825;DHT22;1420;51.324;12.344;2022-08-03T08:57:57;34.90;99.90
2825;DHT22;1420;51.324;12.344;2022-08-03T09:00:23;34.90;99.90
2825;DHT22;1420;51.324;12.344;2022-08-03T09:02:50;35.10;99.90
2825;DHT22;1420;51.324;12.344;2022-08-03T09:05:18;34.40;99.90
2825;DHT22;1420;51.324;12.344;2022-08-03T09:07:46;34.50;99.90
2825;DHT22;1420;51.324;12.344;2022-08-03T09:10:13;34.90;99.90
2825;DHT22;1420;51.324;12.344;2022-08-03T09:12:42;34.70;99.90
2825;DHT22;1420;51.324;12.344;2022-08-03T09:15:23;34.80;99.90
2825;DHT22;1420;51.324;12.344;2022-08-03T09:17:51;34.60;99.90
2825;DHT22;1420;51.324;12.344;2022-08-03T09:20:20;35.00;99.90
2825;DHT22;1420;51.324;12.344;2022-08-03T09:22:50;35.70;99.90
2825;DHT22;1420;51.324;12.344;2022-08-03T09:25:17;35.60;99.90
2825;DHT22;1420;51.324;12.344;2022-08-03T09:27:45;35.30;99.90
2825;DHT22;1420;51.324;12.344;2022-08-03T09:30:14;35.20;99.90
2825;DHT22;1420;51.324;12.344;2022-08-03T09:32:41;35.30;99.90
2825;DHT22;1420;51.324;12.344;2022-08-03T09:35:08;35.30;99.90
2825;DHT22;1420;51.324;12.344;2022-08-03T09:37:35;35.70;99.90
2825;DHT22;1420;51.324;12.344;2022-08-03T09:40:02;35.00;99.90
2825;DHT22;1420;51.324;12.344;2022-08-03T09:42:30;34.30;99.90
2825;DHT22;1420;51.324;12.344;2022-08-03T09:44:57;35.80;99.90
2825;DHT22;1420;51.324;12.344;2022-08-03T09:47:27;35.50;99.90
2825;DHT22;1420;51.324;12.344;2022-08-03T09:49:56;35.50;99.90
2825;DHT22;1420;51.324;12.344;2022-08-03T09:52:28;35.70;99.90
2825;DHT22;1420;51.324;12.344;2022-08-03T09:54:50;35.20;99.90
2825;DHT22;1420;51.324;12.344;2022-08-03T09:57:20;35.50;99.90
2825;DHT22;1420;51.324;12.344;2022-08-03T09:59:46;35.20;99.90
2825;DHT22;1420;51.324;12.344;2022-08-03T10:02:21;35.90;99.90
2825;DHT22;1420;51.324;12.344;2022-08-03T10:04:48;35.60;99.90
2825;DHT22;1420;51.324;12.344;2022-08-03T10:07:15;36.10;99.90
2825;DHT22;1420;51.324;12.344;2022-08-03T10:09:55;35.40;99.90
2825;DHT22;1420;51.324;12.344;2022-08-03T10:12:21;35.30;99.90
2825;DHT22;1420;51.324;12.344;2022-08-03T10:14:48;34.60;99.90
2825;DHT22;1420;51.324;12.344;2022-08-03T10:17:16;34.60;99.90
2825;DHT22;1420;51.324;12.344;2022-08-03T10:19:44;34.70;99.90
2825;DHT22;1420;51.324;12.344;2022-08-03T10:22:14;35.50;99.90
2825;DHT22;1420;51.324;12.344;2022-08-03T10:24:45;35.50;99.90
2825;DHT22;1420;51.324;12.344;2022-08-03T10:27:08;35.30;99.90
2825;DHT22;1420;51.324;12.344;2022-08-03T10:29:37;34.90;99.90
2825;DHT22;1420;51.324;12.344;2022-08-03T10:32:09;35.70;99.90
2825;DHT22;1420;51.324;12.344;2022-08-03T10:34:34;35.70;99.90
2825;DHT22;1420;51.324;12.344;2022-08-03T10:37:03;35.40;99.90
2825;DHT22;1420;51.324;12.344;2022-08-03T10:39:28;34.90;99.90
2825;DHT22;1420;51.324;12.344;2022-08-03T10:41:56;35.00;99.90
2825;DHT22;1420;51.324;12.344;2022-08-03T10:44:25;35.70;99.90
2825;DHT22;1420;51.324;12.344;2022-08-03T10:46:52;34.90;99.90
2825;DHT22;1420;51.324;12.344;2022-08-03T10:49:20;35.30;99.90
2825;DHT22;1420;51.324;12.344;2022-08-03T10:51:47;35.00;99.90
2825;DHT22;1420;51.324;12.344;2022-08-03T10:56:54;34.70;99.90
2825;DHT22;1420;51.324;12.344;2022-08-03T10:59:55;34.60;99.90
2825;DHT22;1420;51.324;12.344;2022-08-03T11:02:23;34.50;99.90
2825;DHT22;1420;51.324;12.344;2022-08-03T11:04:50;34.60;99.90
2825;DHT22;1420;51.324;12.344;2022-08-03T11:07:19;34.80;99.90
2825;DHT22;1420;51.324;12.344;2022-08-03T11:09:47;34.60;99.90
2825;DHT22;1420;51.324;12.344;2022-08-03T11:12:20;34.70;99.90
2825;DHT22;1420;51.324;12.344;2022-08-03T11:14:47;34.80;99.90
2825;DHT22;1420;51.324;12.344;2022-08-03T11:17:14;34.50;99.90
2825;DHT22;1420;51.324;12.344;2022-08-03T11:19:43;34.50;99.90
2825;DHT22;1420;51.324;12.344;2022-08-03T11:22:09;34.50;99.90
2825;DHT22;1420;51.324;12.344;2022-08-03T11:24:58;34.90;99.90
2825;DHT22;1420;51.324;12.344;2022-08-03T11:27:27;34.50;99.90
2825;DHT22;1420;51.324;12.344;2022-08-03T11:30:00;34.60;99.90
2825;DHT22;1420;51.324;12.344;2022-08-03T11:32:53;34.10;99.90
2825;DHT22;1420;51.324;12.344;2022-08-03T11:35:21;34.60;99.90
2825;DHT22;1420;51.324;12.344;2022-08-03T11:38:02;34.40;99.90
2825;DHT22;1420;51.324;12.344;2022-08-03T11:40:35;34.00;99.90
2825;DHT22;1420;51.324;12.344;2022-08-03T11:43:02;34.20;99.90
2825;DHT22;1420;51.324;12.344;2022-08-03T11:45:28;33.80;99.90
2825;DHT22;1420;51.324;12.344;2022-08-03T11:47:56;33.90;99.90
2825;DHT22;1420;51.324;12.344;2022-08-03T11:50:23;33.80;99.90
2825;DHT22;1420;51.324;12.344;2022-08-03T11:52:51;34.10;99.90
2825;DHT22;1420;51.324;12.344;2022-08-03T11:55:18;34.50;99.90
2825;DHT22;1420;51.324;12.344;2022-08-03T11:57:45;34.30;99.90
2825;DHT22;1420;51.324;12.344;2022-08-03T12:00:19;33.80;99.90
2825;DHT22;1420;51.324;12.344;2022-08-03T12:03:02;34.00;99.90
2825;DHT22;1420;51.324;12.344;2022-08-03T12:05:35;34.00;99.90
2825;DHT22;1420;51.324;12.344;2022-08-03T12:08:02;34.00;99.90
2825;DHT22;1420;51.324;12.344;2022-08-03T12:10:29;34.00;99.90
2825;DHT22;1420;51.324;12.344;2022-08-03T12:12:58;34.00;99.90
2825;DHT22;1420;51.324;12.344;2022-08-03T12:15:27;33.50;99.90
2825;DHT22;1420;51.324;12.344;2022-08-03T12:17:54;33.50;99.90
2825;DHT22;1420;51.324;12.344;2022-08-03T12:20:22;33.90;99.90
2825;DHT22;1420;51.324;12.344;2022-08-03T12:22:48;33.90;99.90
2825;DHT22;1420;51.324;12.344;2022-08-03T12:25:23;33.80;99.90
2825;DHT22;1420;51.324;12.344;2022-08-03T12:27:50;33.90;99.90
2825;DHT22;1420;51.324;12.344;2022-08-03T12:30:17;33.80;99.90
2825;DHT22;1420;51.324;12.344;2022-08-03T12:32:44;33.80;99.90
2825;DHT22;1420;51.324;12.344;2022-08-03T12:35:26;34.00;99.90
2825;DHT22;1420;51.324;12.344;2022-08-03T12:37:53;34.00;99.90
2825;DHT22;1420;51.324;12.344;2022-08-03T12:40:24;34.10;99.90
2825;DHT22;1420;51.324;12.344;2022-08-03T12:42:50;33.90;99.90
2825;DHT22;1420;51.324;12.344;2022-08-03T12:45:22;33.90;99.90
2825;DHT22;1420;51.324;12.344;2022-08-03T12:47:53;33.80;99.90
2825;DHT22;1420;51.324;12.344;2022-08-03T12:50:26;34.20;99.90
2825;DHT22;1420;51.324;12.344;2022-08-03T12:52:52;34.00;99.90
2825;DHT22;1420;51.324;12.344;2022-08-03T12:55:20;33.70;99.90
2825;DHT22;1420;51.324;12.344;2022-08-03T12:57:47;33.70;99.90
2825;DHT22;1420;51.324;12.344;2022-08-03T13:00:15;33.80;99.90
2825;DHT22;1420;51.324;12.344;2022-08-03T13:02:42;33.60;99.90
2825;DHT22;1420;51.324;12.344;2022-08-03T13:05:10;33.70;99.90
2825;DHT22;1420;51.324;12.344;2022-08-03T13:07:43;33.80;99.90
2825;DHT22;1420;51.324;12.344;2022-08-03T13:10:10;33.60;99.90
2825;DHT22;1420;51.324;12.344;2022-08-03T13:12:46;33.40;99.90
2825;DHT22;1420;51.324;12.344;2022-08-03T13:15:13;33.40;99.90
2825;DHT22;1420;51.324;12.344;2022-08-03T13:17:41;33.50;99.90
2825;DHT22;1420;51.324;12.344;2022-08-03T13:20:09;33.60;99.90
2825;DHT22;1420;51.324;12.344;2022-08-03T13:22:36;33.60;99.90
2825;DHT22;1420;51.324;12.344;2022-08-03T13:25:04;33.80;99.90
2825;DHT22;1420;51.324;12.344;2022-08-03T13:27:32;33.70;99.90
2825;DHT22;1420;51.324;12.344;2022-08-03T13:30:00;33.50;99.90
2825;DHT22;1420;51.324;12.344;2022-08-03T13:32:28;33.80;99.90
2825;DHT22;1420;51.324;12.344;2022-08-03T13:34:56;33.70;99.90
2825;DHT22;1420;51.324;12.344;2022-08-03T13:37:23;33.60;99.90
2825;DHT22;1420;51.324;12.344;2022-08-03T13:39:50;33.50;99.90
2825;DHT22;1420;51.324;12.344;2022-08-03T13:42:17;33.20;99.90
2825;DHT22;1420;51.324;12.344;2022-08-03T13:44:45;33.10;99.90
2825;DHT22;1420;51.324;12.344;2022-08-03T13:47:12;33.30;99.90
2825;DHT22;1420;51.324;12.344;2022-08-03T13:49:40;33.20;99.90
2825;DHT22;1420;51.324;12.344;2022-08-03T13:52:08;33.20;99.90
2825;DHT22;1420;51.324;12.344;2022-08-03T13:54:36;33.30;99.90
2825;DHT22;1420;51.324;12.344;2022-08-03T13:57:04;33.10;99.90
2825;DHT22;1420;51.324;12.344;2022-08-03T13:59:32;33.10;99.90
2825;DHT22;1420;51.324;12.344;2022-08-03T14:01:59;33.00;99.90
2825;DHT22;1420;51.324;12.344;2022-08-03T14:04:26;33.10;99.90
2825;DHT22;1420;51.324;12.344;2022-08-03T14:06:53;33.10;99.90
2825;DHT22;1420;51.324;12.344;2022-08-03T14:09:21;33.10;99.90
2825;DHT22;1420;51.324;12.344;2022-08-03T14:11:48;33.20;99.90
2825;DHT22;1420;51.324;12.344;2022-08-03T14:14:15;33.10;99.90
2825;DHT22;1420;51.324;12.344;2022-08-03T14:16:42;33.20;99.90
2825;DHT22;1420;51.324;12.344;2022-08-03T14:19:10;33.20;99.90
2825;DHT22;1420;51.324;12.344;2022-08-03T14:21:38;33.20;99.90
2825;DHT22;1420;51.324;12.344;2022-08-03T14:24:06;33.10;99.90
2825;DHT22;1420;51.324;12.344;2022-08-03T14:26:33;33.10;99.90
2825;DHT22;1420;51.324;12.344;2022-08-03T14:29:02;33.10;99.90
2825;DHT22;1420;51.324;12.344;2022-08-03T14:31:30;33.10;99.90
2825;DHT22;1420;51.324;12.344;2022-08-03T14:33:57;32.90;99.90
2825;DHT22;1420;51.324;12.344;2022-08-03T14:36:25;32.90;99.90
2825;DHT22;1420;51.324;12.344;2022-08-03T14:38:53;33.00;99.90
2825;DHT22;1420;51.324;12.344;2022-08-03T14:41:21;33.10;99.90
2825;DHT22;1420;51.324;12.344;2022-08-03T14:43:49;33.00;99.90
2825;DHT22;1420;51.324;12.344;2022-08-03T14:46:16;33.00;99.90
2825;DHT22;1420;51.324;12.344;2022-08-03T14:48:43;33.10;99.90
2825;DHT22;1420;51.324;12.344;2022-08-03T14:51:10;33.10;99.90
2825;DHT22;1420;51.324;12.344;2022-08-03T14:53:37;32.90;99.90
2825;DHT22;1420;51.324;12.344;2022-08-03T14:56:05;32.90;99.90
2825;DHT22;1420;51.324;12.344;2022-08-03T14:58:32;32.90;99.90
2825;DHT22;1420;51.324;12.344;2022-08-03T15:01:00;32.70;99.90
2825;DHT22;1420;51.324;12.344;2022-08-03T15:03:28;32.80;99.90
2825;DHT22;1420;51.324;12.344;2022-08-03T15:05:56;32.80;99.90
2825;DHT22;1420;51.324;12.344;2022-08-03T15:08:24;32.90;99.90
2825;DHT22;1420;51.324;12.344;2022-08-03T15:10:53;33.00;99.90
2825;DHT22;1420;51.324;12.344;2022-08-03T15:13:21;33.00;99.90
2825;DHT22;1420;51.324;12.344;2022-08-03T15:15:48;33.10;99.90
2825;DHT22;1420;51.324;12.344;2022-08-03T15:18:16;33.10;99.90
2825;DHT22;1420;51.324;12.344;2022-08-03T15:20:44;32.90;99.90
2825;DHT22;1420;51.324;12.344;2022-08-03T15:23:13;32.80;99.90
2825;DHT22;1420;51.324;12.344;2022-08-03T15:25:41;32.90;99.90
2825;DHT22;1420;51.324;12.344;2022-08-03T15:28:08;32.70;99.90
2825;DHT22;1420;51.324;12.344;2022-08-03T15:30:36;32.70;99.90
2825;DHT22;1420;51.324;12.344;2022-08-03T15:33:04;32.70;99.90
2825;DHT22;1420;51.324;12.344;2022-08-03T15:35:32;32.90;99.90
2825;DHT22;1420;51.324;12.344;2022-08-03T15:38:00;32.90;99.90
2825;DHT22;1420;51.324;12.344;2022-08-03T15:40:28;33.00;99.90
2825;DHT22;1420;51.324;12.344;2022-08-03T15:42:58;33.10;99.90
2825;DHT22;1420;51.324;12.344;2022-08-03T15:45:23;33.00;99.90
2825;DHT22;1420;51.324;12.344;2022-08-03T15:47:51;33.10;99.90
2825;DHT22;1420;51.324;12.344;2022-08-03T15:50:18;33.20;99.90
2825;DHT22;1420;51.324;12.344;2022-08-03T15:52:45;33.30;99.90
2825;DHT22;1420;51.324;12.344;2022-08-03T15:55:12;33.10;99.90
2825;DHT22;1420;51.324;12.344;2022-08-03T15:57:40;33.30;99.90
2825;DHT22;1420;51.324;12.344;2022-08-03T16:00:09;33.10;99.90
2825;DHT22;1420;51.324;12.344;2022-08-03T16:02:36;33.10;99.90